Sineira — CUJG9 — position and weather

sailwx.info

Track history (hours):
 
Tides and Currents Weather Stations Pressure Air Temp Water Temp Dewpoint Dewpoint Depression Visibility Wind Speed Wind Dir Waves Ship Positions

Sineira

Last reported at 2018-Feb-18 22:30 UTC. Time now 2018-Feb-18 22:32 UTC.
Position N 37°56' W 008°53'.

Length 25 m.

Type: Fishing. MMSI: 263430540.

Date/timePositionNaut miles runAvg speedWind from/ knotsBaromVisibWave heightAir tempDewpointWater temp
2018-Feb-18 22:30N 37°56' W 008°53'1 1.9
2018-Feb-18 22:00N 37°57' W 008°52'0 0.0
2018-Feb-16 19:03N 37°57' W 008°52'0 0.3
2018-Feb-16 19:00N 37°57' W 008°52'0 0.0
2018-Feb-16 11:18N 37°57' W 008°52'0 0.0
2018-Feb-16 11:00N 37°57' W 008°52'0 0.0
2018-Feb-16 10:30N 37°57' W 008°52'2 3.8
2018-Feb-16 10:00N 37°57' W 008°55'2 4.9
2018-Feb-16 09:30N 37°60' W 008°54'0 0.4
2018-Feb-16 09:00N 37°60' W 008°54'0 0.1
2018-Feb-16 08:30N 37°60' W 008°53'0 0.2
2018-Feb-16 08:00N 37°60' W 008°53'1 2.2
2018-Feb-16 07:30N 37°59' W 008°54'2 3.5
2018-Feb-16 07:00N 37°57' W 008°54'2 3.1
2018-Feb-16 06:30N 37°57' W 008°52'0 0.8
2018-Feb-16 06:00N 37°57' W 008°52'0 0.0
2018-Feb-15 13:21N 37°57' W 008°52'0 0.0
2018-Feb-15 13:00N 37°57' W 008°52'0 0.0
2018-Feb-15 12:30N 37°57' W 008°52'0 0.0
2018-Feb-15 12:00N 37°57' W 008°52'0 1.0
2018-Feb-15 11:30N 37°57' W 008°53'1 2.6
2018-Feb-15 11:00N 37°57' W 008°54'0 0.2
2018-Feb-15 10:30N 37°57' W 008°54'1 1.6
2018-Feb-15 10:00N 37°58' W 008°55'0 1.0
2018-Feb-15 09:30N 37°58' W 008°55'0 0.1
2018-Feb-15 09:00N 37°58' W 008°55'1 2.8
2018-Feb-15 08:30N 37°59' W 008°54'1 1.6
2018-Feb-15 08:00N 37°60' W 008°53'2 3.8
2018-Feb-15 07:30N 37°58' W 008°54'2 3.2
2018-Feb-15 07:00N 37°57' W 008°52'0 0.0
2018-Feb-14 15:53N 37°57' W 008°52'1 1.4
2018-Feb-14 15:30N 37°57' W 008°53'2 4.3
2018-Feb-14 15:00N 37°59' W 008°54'4 7.7
2018-Feb-14 14:30N 38°02' W 008°51'0 0.7
2018-Feb-14 14:00N 38°02' W 008°51'0 0.1
2018-Feb-14 13:30N 38°02' W 008°51'1 1.8
2018-Feb-14 13:00N 38°02' W 008°52'2 4.8
2018-Feb-14 12:30N 38°00' W 008°53'1 1.1
2018-Feb-14 12:00N 38°01' W 008°52'2 4.9
2018-Feb-14 11:30N 37°59' W 008°54'1 1.5
2018-Feb-14 11:00N 37°58' W 008°55'0 0.3
2018-Feb-14 10:30N 37°58' W 008°55'2 4.4
2018-Feb-14 10:00N 37°56' W 008°54'1 2.6
2018-Feb-14 09:30N 37°57' W 008°52'0 0.0
2018-Feb-14 09:00N 37°57' W 008°52'0 0.0
2018-Feb-14 07:01N 37°57' W 008°52'0 0.1
2018-Feb-14 07:00N 37°57' W 008°52'0 0.0
2018-Feb-12 17:30N 37°57' W 008°52'0 0.1
2018-Feb-12 15:38N 37°57' W 008°52'0 0.0
2018-Feb-12 15:31N 37°57' W 008°52'0 0.2
2018-Feb-12 15:00N 37°57' W 008°52'0 0.0
2018-Feb-12 14:31N 37°57' W 008°52'0 0.0
2018-Feb-12 14:00N 37°57' W 008°52'1 2.8
2018-Feb-12 13:30N 37°56' W 008°54'2 3.9
2018-Feb-12 13:00N 37°58' W 008°55'0 0.2
2018-Feb-12 12:30N 37°58' W 008°55'1 1.2
2018-Feb-12 12:01N 37°58' W 008°55'0 0.1
2018-Feb-12 11:30N 37°58' W 008°55'0 0.1
2018-Feb-12 11:01N 37°58' W 008°55'1 1.3
2018-Feb-12 10:30N 37°58' W 008°54'1 1.3
2018-Feb-12 10:00N 37°58' W 008°55'2 3.5
2018-Feb-12 09:31N 37°59' W 008°54'2 3.7
2018-Feb-12 09:01N 38°01' W 008°53'0 0.5
2018-Feb-12 08:30N 38°01' W 008°53'0 0.2
2018-Feb-12 08:00N 38°01' W 008°53'2 3.5
2018-Feb-12 07:30N 37°59' W 008°53'3 6.1
2018-Feb-12 07:00N 37°56' W 008°54'1 2.6
2018-Feb-12 06:30N 37°57' W 008°52'  
2018-Feb-09 11:01N 37°59' W 008°54'  
Track history (hours):
 
Tides and Currents Weather Stations Pressure Air Temp Water Temp Dewpoint Dewpoint Depression Visibility Wind Speed Wind Dir Waves Ship Positions

Sineira

Last reported at 2018-Feb-18 22:30 UTC. Time now 2018-Feb-18 22:32 UTC.
Position N 37°56' W 008°53'.

Length 25 m.

Type: Fishing. MMSI: 263430540.

Date/timePositionNaut miles runAvg speedWind from/ knotsBaromVisibWave heightAir tempDewpointWater temp
2018-Feb-18 22:30N 37°56' W 008°53'1 1.9
2018-Feb-18 22:00N 37°57' W 008°52'0 0.0
2018-Feb-16 19:03N 37°57' W 008°52'0 0.3
2018-Feb-16 19:00N 37°57' W 008°52'0 0.0
2018-Feb-16 11:18N 37°57' W 008°52'0 0.0
2018-Feb-16 11:00N 37°57' W 008°52'0 0.0
2018-Feb-16 10:30N 37°57' W 008°52'2 3.8
2018-Feb-16 10:00N 37°57' W 008°55'2 4.9
2018-Feb-16 09:30N 37°60' W 008°54'0 0.4
2018-Feb-16 09:00N 37°60' W 008°54'0 0.1
2018-Feb-16 08:30N 37°60' W 008°53'0 0.2
2018-Feb-16 08:00N 37°60' W 008°53'1 2.2
2018-Feb-16 07:30N 37°59' W 008°54'2 3.5
2018-Feb-16 07:00N 37°57' W 008°54'2 3.1
2018-Feb-16 06:30N 37°57' W 008°52'0 0.8
2018-Feb-16 06:00N 37°57' W 008°52'0 0.0
2018-Feb-15 13:21N 37°57' W 008°52'0 0.0
2018-Feb-15 13:00N 37°57' W 008°52'0 0.0
2018-Feb-15 12:30N 37°57' W 008°52'0 0.0
2018-Feb-15 12:00N 37°57' W 008°52'0 1.0
2018-Feb-15 11:30N 37°57' W 008°53'1 2.6
2018-Feb-15 11:00N 37°57' W 008°54'0 0.2
2018-Feb-15 10:30N 37°57' W 008°54'1 1.6
2018-Feb-15 10:00N 37°58' W 008°55'0 1.0
2018-Feb-15 09:30N 37°58' W 008°55'0 0.1
2018-Feb-15 09:00N 37°58' W 008°55'1 2.8
2018-Feb-15 08:30N 37°59' W 008°54'1 1.6
2018-Feb-15 08:00N 37°60' W 008°53'2 3.8
2018-Feb-15 07:30N 37°58' W 008°54'2 3.2
2018-Feb-15 07:00N 37°57' W 008°52'0 0.0
2018-Feb-14 15:53N 37°57' W 008°52'1 1.4
2018-Feb-14 15:30N 37°57' W 008°53'2 4.3
2018-Feb-14 15:00N 37°59' W 008°54'4 7.7
2018-Feb-14 14:30N 38°02' W 008°51'0 0.7
2018-Feb-14 14:00N 38°02' W 008°51'0 0.1
2018-Feb-14 13:30N 38°02' W 008°51'1 1.8
2018-Feb-14 13:00N 38°02' W 008°52'2 4.8
2018-Feb-14 12:30N 38°00' W 008°53'1 1.1
2018-Feb-14 12:00N 38°01' W 008°52'2 4.9
2018-Feb-14 11:30N 37°59' W 008°54'1 1.5
2018-Feb-14 11:00N 37°58' W 008°55'0 0.3
2018-Feb-14 10:30N 37°58' W 008°55'2 4.4
2018-Feb-14 10:00N 37°56' W 008°54'1 2.6
2018-Feb-14 09:30N 37°57' W 008°52'0 0.0
2018-Feb-14 09:00N 37°57' W 008°52'0 0.0
2018-Feb-14 07:01N 37°57' W 008°52'0 0.1
2018-Feb-14 07:00N 37°57' W 008°52'0 0.0
2018-Feb-12 17:30N 37°57' W 008°52'0 0.1
2018-Feb-12 15:38N 37°57' W 008°52'0 0.0
2018-Feb-12 15:31N 37°57' W 008°52'0 0.2
2018-Feb-12 15:00N 37°57' W 008°52'0 0.0
2018-Feb-12 14:31N 37°57' W 008°52'0 0.0
2018-Feb-12 14:00N 37°57' W 008°52'1 2.8
2018-Feb-12 13:30N 37°56' W 008°54'2 3.9
2018-Feb-12 13:00N 37°58' W 008°55'0 0.2
2018-Feb-12 12:30N 37°58' W 008°55'1 1.2
2018-Feb-12 12:01N 37°58' W 008°55'0 0.1
2018-Feb-12 11:30N 37°58' W 008°55'0 0.1
2018-Feb-12 11:01N 37°58' W 008°55'1 1.3
2018-Feb-12 10:30N 37°58' W 008°54'1 1.3
2018-Feb-12 10:00N 37°58' W 008°55'2 3.5
2018-Feb-12 09:31N 37°59' W 008°54'2 3.7
2018-Feb-12 09:01N 38°01' W 008°53'0 0.5
2018-Feb-12 08:30N 38°01' W 008°53'0 0.2
2018-Feb-12 08:00N 38°01' W 008°53'2 3.5
2018-Feb-12 07:30N 37°59' W 008°53'3 6.1
2018-Feb-12 07:00N 37°56' W 008°54'1 2.6
2018-Feb-12 06:30N 37°57' W 008°52'  
2018-Feb-09 11:01N 37°59' W 008°54'  

Dump ship's entire track history